sensor_id;sensor_type;location;lat;lon;timestamp;P1;durP1;ratioP1;P2;durP2;ratioP2
24743;SDS011;12844;52.110;5.548;2023-02-28T18:08:11;5.60;;;1.25;;
24743;SDS011;12844;52.110;5.548;2023-02-28T18:10:38;5.50;;;1.30;;
24743;SDS011;12844;52.110;5.548;2023-02-28T18:13:04;3.97;;;1.30;;
24743;SDS011;12844;52.110;5.548;2023-02-28T18:15:29;3.00;;;1.20;;
24743;SDS011;12844;52.110;5.548;2023-02-28T18:17:55;3.63;;;1.17;;
24743;SDS011;12844;52.110;5.548;2023-02-28T18:20:21;3.85;;;1.33;;
24743;SDS011;12844;52.110;5.548;2023-02-28T18:22:46;4.38;;;1.40;;
24743;SDS011;12844;52.110;5.548;2023-02-28T18:25:12;3.88;;;1.17;;
24743;SDS011;12844;52.110;5.548;2023-02-28T18:27:41;3.22;;;1.02;;
24743;SDS011;12844;52.110;5.548;2023-02-28T18:30:18;3.67;;;1.30;;
24743;SDS011;12844;52.110;5.548;2023-02-28T18:32:44;4.95;;;1.30;;
24743;SDS011;12844;52.110;5.548;2023-02-28T18:35:10;2.85;;;1.10;;
24743;SDS011;12844;52.110;5.548;2023-02-28T18:37:35;4.28;;;1.30;;
24743;SDS011;12844;52.110;5.548;2023-02-28T18:40:02;3.90;;;1.10;;
24743;SDS011;12844;52.110;5.548;2023-02-28T18:42:28;1.95;;;1.02;;
24743;SDS011;12844;52.110;5.548;2023-02-28T18:44:54;3.50;;;1.90;;
24743;SDS011;12844;52.110;5.548;2023-02-28T18:47:19;2.97;;;1.20;;
24743;SDS011;12844;52.110;5.548;2023-02-28T18:49:45;3.80;;;1.05;;
24743;SDS011;12844;52.110;5.548;2023-02-28T18:52:11;3.72;;;1.40;;
24743;SDS011;12844;52.110;5.548;2023-02-28T18:54:37;3.63;;;1.20;;
24743;SDS011;12844;52.110;5.548;2023-02-28T18:57:03;4.47;;;1.50;;
24743;SDS011;12844;52.110;5.548;2023-02-28T18:59:29;2.72;;;1.25;;
24743;SDS011;12844;52.110;5.548;2023-02-28T19:01:54;4.07;;;1.40;;
24743;SDS011;12844;52.110;5.548;2023-02-28T19:04:20;1.27;;;0.90;;
24743;SDS011;12844;52.110;5.548;2023-02-28T19:06:45;3.53;;;1.20;;
24743;SDS011;12844;52.110;5.548;2023-02-28T19:09:11;2.90;;;1.40;;
24743;SDS011;12844;52.110;5.548;2023-02-28T19:11:36;2.78;;;1.30;;
24743;SDS011;12844;52.110;5.548;2023-02-28T19:14:02;4.10;;;1.23;;
24743;SDS011;12844;52.110;5.548;2023-02-28T19:16:28;1.73;;;1.13;;
24743;SDS011;12844;52.110;5.548;2023-02-28T19:18:53;4.25;;;1.10;;
24743;SDS011;12844;52.110;5.548;2023-02-28T19:21:21;4.93;;;1.15;;
24743;SDS011;12844;52.110;5.548;2023-02-28T19:23:47;2.20;;;1.10;;
24743;SDS011;12844;52.110;5.548;2023-02-28T19:26:14;4.25;;;1.50;;
24743;SDS011;12844;52.110;5.548;2023-02-28T19:28:42;2.58;;;1.33;;
24743;SDS011;12844;52.110;5.548;2023-02-28T19:31:12;3.33;;;1.50;;
24743;SDS011;12844;52.110;5.548;2023-02-28T19:33:39;3.20;;;1.40;;
24743;SDS011;12844;52.110;5.548;2023-02-28T19:36:05;3.42;;;1.45;;
24743;SDS011;12844;52.110;5.548;2023-02-28T19:38:31;2.38;;;1.33;;
24743;SDS011;12844;52.110;5.548;2023-02-28T19:41:00;6.50;;;1.23;;
24743;SDS011;12844;52.110;5.548;2023-02-28T19:43:30;2.75;;;1.35;;
24743;SDS011;12844;52.110;5.548;2023-02-28T19:45:56;2.63;;;1.33;;
24743;SDS011;12844;52.110;5.548;2023-02-28T19:48:22;3.80;;;1.48;;
24743;SDS011;12844;52.110;5.548;2023-02-28T19:50:50;3.53;;;1.20;;
24743;SDS011;12844;52.110;5.548;2023-02-28T19:53:22;2.45;;;0.98;;
24743;SDS011;12844;52.110;5.548;2023-02-28T19:55:47;3.85;;;1.20;;
24743;SDS011;12844;52.110;5.548;2023-02-28T19:58:13;4.63;;;1.35;;
24743;SDS011;12844;52.110;5.548;2023-02-28T20:00:39;1.85;;;1.30;;
24743;SDS011;12844;52.110;5.548;2023-02-28T20:03:05;2.58;;;1.30;;
24743;SDS011;12844;52.110;5.548;2023-02-28T20:05:31;2.08;;;1.40;;
24743;SDS011;12844;52.110;5.548;2023-02-28T20:07:57;2.65;;;1.40;;
24743;SDS011;12844;52.110;5.548;2023-02-28T20:10:23;2.80;;;1.20;;
24743;SDS011;12844;52.110;5.548;2023-02-28T20:12:48;3.15;;;1.58;;
24743;SDS011;12844;52.110;5.548;2023-02-28T20:15:14;2.50;;;1.33;;
24743;SDS011;12844;52.110;5.548;2023-02-28T20:17:40;3.63;;;1.50;;
24743;SDS011;12844;52.110;5.548;2023-02-28T20:20:07;2.80;;;1.58;;
24743;SDS011;12844;52.110;5.548;2023-02-28T20:22:35;1.60;;;1.20;;
24743;SDS011;12844;52.110;5.548;2023-02-28T20:25:02;2.97;;;1.48;;
24743;SDS011;12844;52.110;5.548;2023-02-28T20:27:28;2.33;;;1.40;;
24743;SDS011;12844;52.110;5.548;2023-02-28T20:29:53;5.93;;;1.60;;
24743;SDS011;12844;52.110;5.548;2023-02-28T20:32:19;4.93;;;1.80;;
24743;SDS011;12844;52.110;5.548;2023-02-28T20:34:44;3.15;;;2.17;;
24743;SDS011;12844;52.110;5.548;2023-02-28T20:37:10;3.13;;;1.90;;
24743;SDS011;12844;52.110;5.548;2023-02-28T20:39:36;3.08;;;2.35;;
24743;SDS011;12844;52.110;5.548;2023-02-28T20:42:01;3.25;;;2.30;;
24743;SDS011;12844;52.110;5.548;2023-02-28T20:44:27;3.25;;;2.00;;
24743;SDS011;12844;52.110;5.548;2023-02-28T20:46:52;3.03;;;2.60;;
24743;SDS011;12844;52.110;5.548;2023-02-28T20:49:18;4.55;;;2.45;;
24743;SDS011;12844;52.110;5.548;2023-02-28T20:51:43;2.83;;;2.20;;
24743;SDS011;12844;52.110;5.548;2023-02-28T20:54:09;4.05;;;2.20;;
24743;SDS011;12844;52.110;5.548;2023-02-28T20:56:37;3.05;;;2.50;;
24743;SDS011;12844;52.110;5.548;2023-02-28T20:59:03;5.13;;;2.75;;
24743;SDS011;12844;52.110;5.548;2023-02-28T21:01:29;2.83;;;2.33;;
24743;SDS011;12844;52.110;5.548;2023-02-28T21:03:56;4.68;;;2.55;;
24743;SDS011;12844;52.110;5.548;2023-02-28T21:06:24;4.25;;;2.90;;
24743;SDS011;12844;52.110;5.548;2023-02-28T21:08:52;4.57;;;2.67;;
24743;SDS011;12844;52.110;5.548;2023-02-28T21:11:22;4.35;;;2.78;;
24743;SDS011;12844;52.110;5.548;2023-02-28T21:13:50;5.70;;;2.90;;
24743;SDS011;12844;52.110;5.548;2023-02-28T21:16:17;4.90;;;2.55;;
24743;SDS011;12844;52.110;5.548;2023-02-28T21:18:45;5.00;;;2.90;;
24743;SDS011;12844;52.110;5.548;2023-02-28T21:21:12;4.32;;;2.70;;
24743;SDS011;12844;52.110;5.548;2023-02-28T21:23:39;4.10;;;2.40;;
24743;SDS011;12844;52.110;5.548;2023-02-28T21:26:06;3.15;;;2.45;;
24743;SDS011;12844;52.110;5.548;2023-02-28T21:28:35;3.95;;;2.13;;
24743;SDS011;12844;52.110;5.548;2023-02-28T21:31:02;3.90;;;2.58;;
24743;SDS011;12844;52.110;5.548;2023-02-28T21:33:32;4.53;;;2.80;;
24743;SDS011;12844;52.110;5.548;2023-02-28T21:35:59;2.97;;;2.50;;
24743;SDS011;12844;52.110;5.548;2023-02-28T21:38:29;3.90;;;2.78;;
24743;SDS011;12844;52.110;5.548;2023-02-28T21:40:55;3.92;;;2.72;;
24743;SDS011;12844;52.110;5.548;2023-02-28T21:43:26;4.88;;;2.90;;
24743;SDS011;12844;52.110;5.548;2023-02-28T21:45:52;4.22;;;2.50;;
24743;SDS011;12844;52.110;5.548;2023-02-28T21:48:17;5.18;;;2.50;;
24743;SDS011;12844;52.110;5.548;2023-02-28T21:50:44;5.30;;;2.65;;
24743;SDS011;12844;52.110;5.548;2023-02-28T21:53:19;5.97;;;2.97;;
24743;SDS011;12844;52.110;5.548;2023-02-28T21:55:44;4.30;;;2.65;;
24743;SDS011;12844;52.110;5.548;2023-02-28T21:58:10;3.85;;;2.80;;
24743;SDS011;12844;52.110;5.548;2023-02-28T22:00:38;4.00;;;2.85;;
24743;SDS011;12844;52.110;5.548;2023-02-28T22:03:05;4.45;;;2.75;;
24743;SDS011;12844;52.110;5.548;2023-02-28T22:05:31;4.30;;;2.78;;
24743;SDS011;12844;52.110;5.548;2023-02-28T22:07:56;5.63;;;2.83;;
24743;SDS011;12844;52.110;5.548;2023-02-28T22:10:22;3.63;;;3.00;;
24743;SDS011;12844;52.110;5.548;2023-02-28T22:12:48;3.85;;;2.80;;
24743;SDS011;12844;52.110;5.548;2023-02-28T22:15:14;4.85;;;3.03;;
24743;SDS011;12844;52.110;5.548;2023-02-28T22:17:40;5.00;;;2.80;;
24743;SDS011;12844;52.110;5.548;2023-02-28T22:20:06;3.58;;;2.90;;
24743;SDS011;12844;52.110;5.548;2023-02-28T22:22:32;5.03;;;3.00;;
24743;SDS011;12844;52.110;5.548;2023-02-28T22:24:58;3.30;;;2.60;;
24743;SDS011;12844;52.110;5.548;2023-02-28T22:27:23;4.47;;;3.03;;
24743;SDS011;12844;52.110;5.548;2023-02-28T22:29:49;3.92;;;2.63;;
24743;SDS011;12844;52.110;5.548;2023-02-28T22:32:14;4.43;;;3.00;;
24743;SDS011;12844;52.110;5.548;2023-02-28T22:34:40;4.00;;;2.70;;
24743;SDS011;12844;52.110;5.548;2023-02-28T22:37:06;3.67;;;2.95;;
24743;SDS011;12844;52.110;5.548;2023-02-28T22:39:31;3.92;;;2.90;;
24743;SDS011;12844;52.110;5.548;2023-02-28T22:41:57;4.18;;;2.95;;
24743;SDS011;12844;52.110;5.548;2023-02-28T22:44:23;3.30;;;2.72;;
24743;SDS011;12844;52.110;5.548;2023-02-28T22:46:52;4.03;;;2.95;;
24743;SDS011;12844;52.110;5.548;2023-02-28T22:49:18;4.03;;;2.75;;
24743;SDS011;12844;52.110;5.548;2023-02-28T22:51:43;5.32;;;2.88;;
24743;SDS011;12844;52.110;5.548;2023-02-28T22:54:09;4.30;;;2.90;;
24743;SDS011;12844;52.110;5.548;2023-02-28T22:56:34;4.03;;;2.88;;
24743;SDS011;12844;52.110;5.548;2023-02-28T22:59:00;5.13;;;3.20;;
24743;SDS011;12844;52.110;5.548;2023-02-28T23:01:27;4.20;;;2.83;;
24743;SDS011;12844;52.110;5.548;2023-02-28T23:03:55;3.05;;;2.67;;
24743;SDS011;12844;52.110;5.548;2023-02-28T23:06:25;3.90;;;2.80;;
24743;SDS011;12844;52.110;5.548;2023-02-28T23:08:54;4.22;;;2.80;;
24743;SDS011;12844;52.110;5.548;2023-02-28T23:11:22;4.57;;;3.22;;
24743;SDS011;12844;52.110;5.548;2023-02-28T23:13:50;4.75;;;2.90;;
24743;SDS011;12844;52.110;5.548;2023-02-28T23:18:49;3.92;;;3.00;;
24743;SDS011;12844;52.110;5.548;2023-02-28T23:21:14;4.45;;;3.10;;
24743;SDS011;12844;52.110;5.548;2023-02-28T23:23:40;3.28;;;2.95;;
24743;SDS011;12844;52.110;5.548;2023-02-28T23:26:06;4.60;;;3.30;;
24743;SDS011;12844;52.110;5.548;2023-02-28T23:28:32;3.67;;;3.10;;
24743;SDS011;12844;52.110;5.548;2023-02-28T23:31:01;3.92;;;2.88;;
24743;SDS011;12844;52.110;5.548;2023-02-28T23:33:31;3.67;;;3.05;;
24743;SDS011;12844;52.110;5.548;2023-02-28T23:35:57;3.83;;;2.90;;
24743;SDS011;12844;52.110;5.548;2023-02-28T23:38:27;4.57;;;3.40;;
24743;SDS011;12844;52.110;5.548;2023-02-28T23:40:53;3.50;;;2.67;;
24743;SDS011;12844;52.110;5.548;2023-02-28T23:43:19;4.20;;;3.47;;
24743;SDS011;12844;52.110;5.548;2023-02-28T23:45:52;3.95;;;3.05;;
24743;SDS011;12844;52.110;5.548;2023-02-28T23:48:19;4.47;;;2.70;;
24743;SDS011;12844;52.110;5.548;2023-02-28T23:50:44;3.38;;;3.00;;
24743;SDS011;12844;52.110;5.548;2023-02-28T23:53:10;3.38;;;3.08;;
24743;SDS011;12844;52.110;5.548;2023-02-28T23:55:35;4.75;;;3.17;;
24743;SDS011;12844;52.110;5.548;2023-02-28T23:58:01;3.80;;;2.80;;
